sensor_id;sensor_type;location;lat;lon;timestamp;P1;durP1;ratioP1;P2;durP2;ratioP2
71464;SDS011;59274;49.874;9.154;2022-11-13T00:00:32;17.57;;;9.07;;
71464;SDS011;59274;49.874;9.154;2022-11-13T00:02:58;18.95;;;9.20;;
71464;SDS011;59274;49.874;9.154;2022-11-13T00:05:23;17.70;;;8.33;;
71464;SDS011;59274;49.874;9.154;2022-11-13T00:07:49;16.83;;;9.67;;
71464;SDS011;59274;49.874;9.154;2022-11-13T00:10:14;14.57;;;8.43;;
71464;SDS011;59274;49.874;9.154;2022-11-13T00:12:40;16.40;;;8.82;;
71464;SDS011;59274;49.874;9.154;2022-11-13T00:15:06;18.50;;;9.02;;
71464;SDS011;59274;49.874;9.154;2022-11-13T00:17:32;18.95;;;9.30;;
71464;SDS011;59274;49.874;9.154;2022-11-13T00:19:57;20.43;;;9.90;;
71464;SDS011;59274;49.874;9.154;2022-11-13T00:22:23;17.00;;;9.07;;
71464;SDS011;59274;49.874;9.154;2022-11-13T00:24:48;18.40;;;9.65;;
71464;SDS011;59274;49.874;9.154;2022-11-13T00:27:13;18.90;;;9.40;;
71464;SDS011;59274;49.874;9.154;2022-11-13T00:29:39;16.93;;;8.70;;
71464;SDS011;59274;49.874;9.154;2022-11-13T00:32:04;15.43;;;8.37;;
71464;SDS011;59274;49.874;9.154;2022-11-13T00:34:30;17.53;;;8.93;;
71464;SDS011;59274;49.874;9.154;2022-11-13T00:36:55;17.33;;;8.65;;
71464;SDS011;59274;49.874;9.154;2022-11-13T00:39:21;19.20;;;9.30;;
71464;SDS011;59274;49.874;9.154;2022-11-13T00:41:46;20.33;;;8.37;;
71464;SDS011;59274;49.874;9.154;2022-11-13T00:44:12;18.70;;;8.80;;
71464;SDS011;59274;49.874;9.154;2022-11-13T00:46:37;17.43;;;8.27;;
71464;SDS011;59274;49.874;9.154;2022-11-13T00:49:03;15.93;;;8.07;;
71464;SDS011;59274;49.874;9.154;2022-11-13T00:51:28;16.05;;;8.25;;
71464;SDS011;59274;49.874;9.154;2022-11-13T00:53:54;15.53;;;8.40;;
71464;SDS011;59274;49.874;9.154;2022-11-13T00:56:20;15.77;;;7.55;;
71464;SDS011;59274;49.874;9.154;2022-11-13T00:58:45;16.47;;;8.50;;
71464;SDS011;59274;49.874;9.154;2022-11-13T01:01:12;15.47;;;8.20;;
71464;SDS011;59274;49.874;9.154;2022-11-13T01:03:40;17.20;;;9.25;;
71464;SDS011;59274;49.874;9.154;2022-11-13T01:06:13;18.17;;;9.23;;
71464;SDS011;59274;49.874;9.154;2022-11-13T01:08:41;17.50;;;9.73;;
71464;SDS011;59274;49.874;9.154;2022-11-13T01:11:08;16.42;;;8.88;;
71464;SDS011;59274;49.874;9.154;2022-11-13T01:13:41;16.60;;;8.67;;
71464;SDS011;59274;49.874;9.154;2022-11-13T01:16:11;15.30;;;8.32;;
71464;SDS011;59274;49.874;9.154;2022-11-13T01:18:38;19.42;;;9.15;;
71464;SDS011;59274;49.874;9.154;2022-11-13T01:21:07;17.02;;;9.05;;
71464;SDS011;59274;49.874;9.154;2022-11-13T01:23:35;18.67;;;9.20;;
71464;SDS011;59274;49.874;9.154;2022-11-13T01:26:05;22.40;;;9.50;;
71464;SDS011;59274;49.874;9.154;2022-11-13T01:28:35;17.73;;;8.60;;
71464;SDS011;59274;49.874;9.154;2022-11-13T01:31:06;18.30;;;9.55;;
71464;SDS011;59274;49.874;9.154;2022-11-13T01:33:33;18.27;;;9.23;;
71464;SDS011;59274;49.874;9.154;2022-11-13T01:36:03;18.88;;;9.50;;
71464;SDS011;59274;49.874;9.154;2022-11-13T01:38:52;19.53;;;9.17;;
71464;SDS011;59274;49.874;9.154;2022-11-13T01:41:19;18.65;;;9.65;;
71464;SDS011;59274;49.874;9.154;2022-11-13T01:43:50;18.45;;;9.85;;
71464;SDS011;59274;49.874;9.154;2022-11-13T01:46:18;19.33;;;10.13;;
71464;SDS011;59274;49.874;9.154;2022-11-13T01:48:52;21.67;;;10.70;;
71464;SDS011;59274;49.874;9.154;2022-11-13T01:51:30;16.47;;;8.80;;
71464;SDS011;59274;49.874;9.154;2022-11-13T01:53:59;15.98;;;8.52;;
71464;SDS011;59274;49.874;9.154;2022-11-13T01:56:28;16.20;;;8.52;;
71464;SDS011;59274;49.874;9.154;2022-11-13T01:59:00;15.40;;;8.18;;
71464;SDS011;59274;49.874;9.154;2022-11-13T02:01:33;16.17;;;8.50;;
71464;SDS011;59274;49.874;9.154;2022-11-13T02:03:59;16.50;;;8.10;;
71464;SDS011;59274;49.874;9.154;2022-11-13T02:06:25;14.80;;;7.70;;
71464;SDS011;59274;49.874;9.154;2022-11-13T02:08:54;19.48;;;8.77;;
71464;SDS011;59274;49.874;9.154;2022-11-13T02:11:20;15.32;;;8.25;;
71464;SDS011;59274;49.874;9.154;2022-11-13T02:13:46;16.25;;;8.63;;
71464;SDS011;59274;49.874;9.154;2022-11-13T02:16:12;19.52;;;9.07;;
71464;SDS011;59274;49.874;9.154;2022-11-13T02:18:39;17.63;;;8.82;;
71464;SDS011;59274;49.874;9.154;2022-11-13T02:24:10;22.13;;;9.77;;
71464;SDS011;59274;49.874;9.154;2022-11-13T02:26:42;17.77;;;9.45;;
71464;SDS011;59274;49.874;9.154;2022-11-13T02:29:08;18.92;;;9.40;;
71464;SDS011;59274;49.874;9.154;2022-11-13T02:31:34;17.53;;;8.97;;
71464;SDS011;59274;49.874;9.154;2022-11-13T02:34:03;20.10;;;9.38;;
71464;SDS011;59274;49.874;9.154;2022-11-13T02:36:28;18.47;;;9.43;;
71464;SDS011;59274;49.874;9.154;2022-11-13T02:38:55;17.90;;;9.02;;
71464;SDS011;59274;49.874;9.154;2022-11-13T02:41:23;19.10;;;9.93;;
71464;SDS011;59274;49.874;9.154;2022-11-13T02:43:48;18.10;;;9.60;;
71464;SDS011;59274;49.874;9.154;2022-11-13T02:46:14;19.83;;;10.10;;
71464;SDS011;59274;49.874;9.154;2022-11-13T02:48:39;19.48;;;10.13;;
71464;SDS011;59274;49.874;9.154;2022-11-13T02:51:05;17.43;;;9.30;;
71464;SDS011;59274;49.874;9.154;2022-11-13T02:53:31;16.80;;;9.23;;
71464;SDS011;59274;49.874;9.154;2022-11-13T02:55:56;19.17;;;9.23;;
71464;SDS011;59274;49.874;9.154;2022-11-13T02:58:22;18.43;;;9.47;;
71464;SDS011;59274;49.874;9.154;2022-11-13T03:00:47;17.20;;;9.70;;
71464;SDS011;59274;49.874;9.154;2022-11-13T03:03:13;19.63;;;8.87;;
71464;SDS011;59274;49.874;9.154;2022-11-13T03:05:38;17.25;;;8.07;;
71464;SDS011;59274;49.874;9.154;2022-11-13T03:08:04;15.67;;;8.17;;
71464;SDS011;59274;49.874;9.154;2022-11-13T03:10:30;16.75;;;8.30;;
71464;SDS011;59274;49.874;9.154;2022-11-13T03:12:57;15.60;;;8.03;;
71464;SDS011;59274;49.874;9.154;2022-11-13T03:15:23;15.70;;;8.10;;
71464;SDS011;59274;49.874;9.154;2022-11-13T03:17:48;15.23;;;8.20;;
71464;SDS011;59274;49.874;9.154;2022-11-13T03:20:14;19.23;;;9.23;;
71464;SDS011;59274;49.874;9.154;2022-11-13T03:22:39;16.67;;;8.65;;
71464;SDS011;59274;49.874;9.154;2022-11-13T03:25:05;18.83;;;8.70;;
71464;SDS011;59274;49.874;9.154;2022-11-13T03:27:31;20.42;;;9.52;;
71464;SDS011;59274;49.874;9.154;2022-11-13T03:29:57;21.83;;;9.93;;
71464;SDS011;59274;49.874;9.154;2022-11-13T03:32:22;19.52;;;9.23;;
71464;SDS011;59274;49.874;9.154;2022-11-13T03:34:48;19.93;;;9.73;;
71464;SDS011;59274;49.874;9.154;2022-11-13T03:37:13;21.50;;;10.00;;
71464;SDS011;59274;49.874;9.154;2022-11-13T03:39:39;19.45;;;9.40;;
71464;SDS011;59274;49.874;9.154;2022-11-13T03:42:04;19.23;;;9.10;;
71464;SDS011;59274;49.874;9.154;2022-11-13T03:44:30;19.43;;;9.47;;
71464;SDS011;59274;49.874;9.154;2022-11-13T03:46:55;20.43;;;9.40;;
71464;SDS011;59274;49.874;9.154;2022-11-13T03:49:20;20.83;;;9.68;;
71464;SDS011;59274;49.874;9.154;2022-11-13T03:51:46;21.77;;;10.03;;
71464;SDS011;59274;49.874;9.154;2022-11-13T03:54:11;22.27;;;10.43;;
71464;SDS011;59274;49.874;9.154;2022-11-13T03:56:37;21.50;;;10.60;;
71464;SDS011;59274;49.874;9.154;2022-11-13T03:59:02;22.33;;;11.00;;
71464;SDS011;59274;49.874;9.154;2022-11-13T04:01:28;24.10;;;10.77;;
71464;SDS011;59274;49.874;9.154;2022-11-13T04:03:53;22.80;;;10.83;;
71464;SDS011;59274;49.874;9.154;2022-11-13T04:06:19;20.55;;;9.57;;
71464;SDS011;59274;49.874;9.154;2022-11-13T04:08:46;21.80;;;9.77;;
71464;SDS011;59274;49.874;9.154;2022-11-13T04:11:11;18.23;;;8.88;;
71464;SDS011;59274;49.874;9.154;2022-11-13T04:13:37;21.27;;;8.60;;
71464;SDS011;59274;49.874;9.154;2022-11-13T04:16:03;20.60;;;9.10;;
71464;SDS011;59274;49.874;9.154;2022-11-13T04:18:29;18.70;;;8.50;;
71464;SDS011;59274;49.874;9.154;2022-11-13T04:20:58;22.05;;;8.90;;
71464;SDS011;59274;49.874;9.154;2022-11-13T04:23:27;17.60;;;8.70;;
71464;SDS011;59274;49.874;9.154;2022-11-13T04:25:53;19.35;;;9.57;;
71464;SDS011;59274;49.874;9.154;2022-11-13T04:28:18;17.60;;;8.90;;
71464;SDS011;59274;49.874;9.154;2022-11-13T04:30:44;18.23;;;8.05;;
71464;SDS011;59274;49.874;9.154;2022-11-13T04:33:09;19.33;;;8.98;;
71464;SDS011;59274;49.874;9.154;2022-11-13T04:35:35;22.77;;;8.60;;
71464;SDS011;59274;49.874;9.154;2022-11-13T04:38:03;21.27;;;8.90;;
71464;SDS011;59274;49.874;9.154;2022-11-13T04:40:28;19.53;;;9.20;;
71464;SDS011;59274;49.874;9.154;2022-11-13T04:42:54;18.83;;;8.83;;
71464;SDS011;59274;49.874;9.154;2022-11-13T04:45:20;20.27;;;8.95;;
71464;SDS011;59274;49.874;9.154;2022-11-13T04:47:47;19.42;;;9.18;;
71464;SDS011;59274;49.874;9.154;2022-11-13T04:50:13;22.13;;;9.55;;
71464;SDS011;59274;49.874;9.154;2022-11-13T04:52:39;21.15;;;9.85;;
71464;SDS011;59274;49.874;9.154;2022-11-13T04:55:05;20.50;;;9.77;;
71464;SDS011;59274;49.874;9.154;2022-11-13T04:57:32;25.27;;;10.40;;
71464;SDS011;59274;49.874;9.154;2022-11-13T04:59:57;17.93;;;8.83;;
71464;SDS011;59274;49.874;9.154;2022-11-13T05:02:23;22.20;;;9.02;;
71464;SDS011;59274;49.874;9.154;2022-11-13T05:04:48;23.33;;;8.90;;
71464;SDS011;59274;49.874;9.154;2022-11-13T05:07:14;19.03;;;8.57;;
71464;SDS011;59274;49.874;9.154;2022-11-13T05:09:39;21.27;;;8.80;;
71464;SDS011;59274;49.874;9.154;2022-11-13T05:12:04;22.27;;;9.80;;
71464;SDS011;59274;49.874;9.154;2022-11-13T05:14:35;21.15;;;9.10;;
71464;SDS011;59274;49.874;9.154;2022-11-13T05:17:02;19.38;;;8.35;;
71464;SDS011;59274;49.874;9.154;2022-11-13T05:19:28;17.85;;;8.45;;
71464;SDS011;59274;49.874;9.154;2022-11-13T05:21:53;21.00;;;8.93;;
71464;SDS011;59274;49.874;9.154;2022-11-13T05:24:22;19.63;;;8.27;;
71464;SDS011;59274;49.874;9.154;2022-11-13T05:26:47;29.05;;;8.85;;
71464;SDS011;59274;49.874;9.154;2022-11-13T05:29:13;22.93;;;8.93;;
71464;SDS011;59274;49.874;9.154;2022-11-13T05:31:38;21.63;;;9.70;;
71464;SDS011;59274;49.874;9.154;2022-11-13T05:34:04;20.60;;;8.63;;
71464;SDS011;59274;49.874;9.154;2022-11-13T05:36:29;18.88;;;8.80;;
71464;SDS011;59274;49.874;9.154;2022-11-13T05:38:55;18.05;;;8.50;;
71464;SDS011;59274;49.874;9.154;2022-11-13T05:41:21;23.80;;;9.45;;
71464;SDS011;59274;49.874;9.154;2022-11-13T05:43:47;25.40;;;8.30;;
71464;SDS011;59274;49.874;9.154;2022-11-13T05:46:14;19.48;;;8.48;;
71464;SDS011;59274;49.874;9.154;2022-11-13T05:48:41;19.95;;;8.85;;
71464;SDS011;59274;49.874;9.154;2022-11-13T05:51:14;18.00;;;8.05;;
71464;SDS011;59274;49.874;9.154;2022-11-13T05:53:41;16.00;;;8.20;;
71464;SDS011;59274;49.874;9.154;2022-11-13T05:56:14;17.02;;;8.02;;
71464;SDS011;59274;49.874;9.154;2022-11-13T05:58:44;18.83;;;8.60;;
71464;SDS011;59274;49.874;9.154;2022-11-13T06:01:13;17.35;;;8.38;;
71464;SDS011;59274;49.874;9.154;2022-11-13T06:03:41;17.50;;;8.85;;
71464;SDS011;59274;49.874;9.154;2022-11-13T06:06:08;16.87;;;8.27;;
71464;SDS011;59274;49.874;9.154;2022-11-13T06:08:36;19.95;;;7.85;;
71464;SDS011;59274;49.874;9.154;2022-11-13T06:11:03;15.00;;;8.38;;
71464;SDS011;59274;49.874;9.154;2022-11-13T06:13:30;16.67;;;8.23;;
71464;SDS011;59274;49.874;9.154;2022-11-13T06:16:03;27.63;;;12.87;;
71464;SDS011;59274;49.874;9.154;2022-11-13T06:18:30;24.40;;;10.05;;
71464;SDS011;59274;49.874;9.154;2022-11-13T06:21:03;23.60;;;10.55;;
71464;SDS011;59274;49.874;9.154;2022-11-13T06:23:32;23.38;;;10.60;;
71464;SDS011;59274;49.874;9.154;2022-11-13T06:26:06;17.40;;;8.40;;
71464;SDS011;59274;49.874;9.154;2022-11-13T06:28:55;15.27;;;7.70;;
71464;SDS011;59274;49.874;9.154;2022-11-13T06:31:23;18.33;;;7.22;;
71464;SDS011;59274;49.874;9.154;2022-11-13T06:33:50;15.23;;;7.57;;
71464;SDS011;59274;49.874;9.154;2022-11-13T06:36:16;14.70;;;7.38;;
71464;SDS011;59274;49.874;9.154;2022-11-13T06:38:46;13.15;;;6.05;;
71464;SDS011;59274;49.874;9.154;2022-11-13T06:41:13;13.23;;;6.13;;
71464;SDS011;59274;49.874;9.154;2022-11-13T06:43:39;13.05;;;6.20;;
71464;SDS011;59274;49.874;9.154;2022-11-13T06:46:06;12.48;;;6.05;;
71464;SDS011;59274;49.874;9.154;2022-11-13T06:48:34;12.73;;;5.87;;
71464;SDS011;59274;49.874;9.154;2022-11-13T06:51:00;13.55;;;6.07;;
71464;SDS011;59274;49.874;9.154;2022-11-13T06:53:27;10.30;;;5.10;;
71464;SDS011;59274;49.874;9.154;2022-11-13T06:55:52;13.02;;;6.18;;
71464;SDS011;59274;49.874;9.154;2022-11-13T06:58:18;12.33;;;5.97;;
71464;SDS011;59274;49.874;9.154;2022-11-13T07:00:43;12.50;;;5.97;;
71464;SDS011;59274;49.874;9.154;2022-11-13T07:03:20;13.80;;;6.57;;
71464;SDS011;59274;49.874;9.154;2022-11-13T07:05:47;14.10;;;7.40;;
71464;SDS011;59274;49.874;9.154;2022-11-13T07:08:13;13.07;;;6.85;;
71464;SDS011;59274;49.874;9.154;2022-11-13T07:10:39;12.70;;;6.53;;
71464;SDS011;59274;49.874;9.154;2022-11-13T07:13:05;14.15;;;7.00;;
71464;SDS011;59274;49.874;9.154;2022-11-13T07:15:38;14.75;;;7.07;;
71464;SDS011;59274;49.874;9.154;2022-11-13T07:18:04;13.90;;;6.20;;
71464;SDS011;59274;49.874;9.154;2022-11-13T07:20:31;14.23;;;6.25;;
71464;SDS011;59274;49.874;9.154;2022-11-13T07:22:58;13.32;;;6.82;;
71464;SDS011;59274;49.874;9.154;2022-11-13T07:25:25;17.05;;;9.30;;
71464;SDS011;59274;49.874;9.154;2022-11-13T07:27:51;13.20;;;6.45;;
71464;SDS011;59274;49.874;9.154;2022-11-13T07:30:17;18.20;;;7.43;;
71464;SDS011;59274;49.874;9.154;2022-11-13T07:32:42;13.00;;;6.57;;
71464;SDS011;59274;49.874;9.154;2022-11-13T07:35:08;14.23;;;7.18;;
71464;SDS011;59274;49.874;9.154;2022-11-13T07:37:34;13.53;;;6.83;;
71464;SDS011;59274;49.874;9.154;2022-11-13T07:39:59;15.18;;;6.97;;
71464;SDS011;59274;49.874;9.154;2022-11-13T07:42:25;14.50;;;7.37;;
71464;SDS011;59274;49.874;9.154;2022-11-13T07:44:51;15.13;;;6.80;;
71464;SDS011;59274;49.874;9.154;2022-11-13T07:47:16;13.45;;;6.97;;
71464;SDS011;59274;49.874;9.154;2022-11-13T07:49:42;15.33;;;8.43;;
71464;SDS011;59274;49.874;9.154;2022-11-13T07:52:07;16.03;;;7.87;;
71464;SDS011;59274;49.874;9.154;2022-11-13T07:54:33;16.17;;;7.95;;
71464;SDS011;59274;49.874;9.154;2022-11-13T07:56:58;16.57;;;7.57;;
71464;SDS011;59274;49.874;9.154;2022-11-13T07:59:24;13.27;;;7.37;;
71464;SDS011;59274;49.874;9.154;2022-11-13T08:01:49;15.53;;;7.30;;
71464;SDS011;59274;49.874;9.154;2022-11-13T08:04:14;12.57;;;6.90;;
71464;SDS011;59274;49.874;9.154;2022-11-13T08:06:40;15.30;;;7.80;;
71464;SDS011;59274;49.874;9.154;2022-11-13T08:09:05;14.60;;;7.53;;
71464;SDS011;59274;49.874;9.154;2022-11-13T08:11:31;14.83;;;7.97;;
71464;SDS011;59274;49.874;9.154;2022-11-13T08:13:56;14.82;;;7.45;;
71464;SDS011;59274;49.874;9.154;2022-11-13T08:16:22;15.70;;;8.00;;
71464;SDS011;59274;49.874;9.154;2022-11-13T08:18:48;16.80;;;8.20;;
71464;SDS011;59274;49.874;9.154;2022-11-13T08:21:13;16.90;;;8.18;;
71464;SDS011;59274;49.874;9.154;2022-11-13T08:23:39;18.53;;;8.50;;
71464;SDS011;59274;49.874;9.154;2022-11-13T08:26:06;19.20;;;8.73;;
71464;SDS011;59274;49.874;9.154;2022-11-13T08:28:32;17.85;;;8.43;;
71464;SDS011;59274;49.874;9.154;2022-11-13T08:30:58;17.13;;;9.52;;
71464;SDS011;59274;49.874;9.154;2022-11-13T08:33:23;16.50;;;8.77;;
71464;SDS011;59274;49.874;9.154;2022-11-13T08:35:56;20.80;;;9.70;;
71464;SDS011;59274;49.874;9.154;2022-11-13T08:38:23;19.98;;;10.07;;
71464;SDS011;59274;49.874;9.154;2022-11-13T08:40:49;20.70;;;9.57;;
71464;SDS011;59274;49.874;9.154;2022-11-13T08:43:15;19.20;;;9.70;;
71464;SDS011;59274;49.874;9.154;2022-11-13T08:45:40;20.65;;;9.90;;
71464;SDS011;59274;49.874;9.154;2022-11-13T08:48:06;22.70;;;10.97;;
71464;SDS011;59274;49.874;9.154;2022-11-13T08:50:32;21.03;;;10.03;;
71464;SDS011;59274;49.874;9.154;2022-11-13T08:52:58;20.30;;;10.65;;
71464;SDS011;59274;49.874;9.154;2022-11-13T08:55:25;20.77;;;10.70;;
71464;SDS011;59274;49.874;9.154;2022-11-13T08:57:56;22.25;;;11.05;;
71464;SDS011;59274;49.874;9.154;2022-11-13T09:00:23;20.65;;;9.95;;
71464;SDS011;59274;49.874;9.154;2022-11-13T09:02:52;19.33;;;9.97;;
71464;SDS011;59274;49.874;9.154;2022-11-13T09:05:19;19.70;;;9.90;;
71464;SDS011;59274;49.874;9.154;2022-11-13T09:07:44;21.43;;;10.60;;
71464;SDS011;59274;49.874;9.154;2022-11-13T09:10:10;18.90;;;10.02;;
71464;SDS011;59274;49.874;9.154;2022-11-13T09:12:36;19.07;;;9.20;;
71464;SDS011;59274;49.874;9.154;2022-11-13T09:15:01;22.20;;;11.17;;
71464;SDS011;59274;49.874;9.154;2022-11-13T09:17:27;21.37;;;10.57;;
71464;SDS011;59274;49.874;9.154;2022-11-13T09:19:52;20.58;;;11.05;;
71464;SDS011;59274;49.874;9.154;2022-11-13T09:22:17;20.88;;;10.48;;
71464;SDS011;59274;49.874;9.154;2022-11-13T09:24:43;22.87;;;10.67;;
71464;SDS011;59274;49.874;9.154;2022-11-13T09:27:08;20.87;;;10.97;;
71464;SDS011;59274;49.874;9.154;2022-11-13T09:29:34;19.83;;;11.07;;
71464;SDS011;59274;49.874;9.154;2022-11-13T09:32:00;25.45;;;11.57;;
71464;SDS011;59274;49.874;9.154;2022-11-13T09:34:25;20.10;;;10.33;;
71464;SDS011;59274;49.874;9.154;2022-11-13T09:36:51;20.13;;;10.75;;
71464;SDS011;59274;49.874;9.154;2022-11-13T09:39:17;18.65;;;9.73;;
71464;SDS011;59274;49.874;9.154;2022-11-13T09:41:51;18.70;;;9.83;;
71464;SDS011;59274;49.874;9.154;2022-11-13T09:44:31;19.27;;;10.23;;
71464;SDS011;59274;49.874;9.154;2022-11-13T09:50:01;18.08;;;9.20;;
71464;SDS011;59274;49.874;9.154;2022-11-13T09:52:47;16.08;;;9.00;;
71464;SDS011;59274;49.874;9.154;2022-11-13T09:55:17;15.95;;;8.35;;
71464;SDS011;59274;49.874;9.154;2022-11-13T10:00:39;13.73;;;7.93;;
71464;SDS011;59274;49.874;9.154;2022-11-13T10:03:14;16.80;;;8.07;;
71464;SDS011;59274;49.874;9.154;2022-11-13T10:06:00;15.05;;;8.50;;
71464;SDS011;59274;49.874;9.154;2022-11-13T10:08:42;17.33;;;9.05;;
71464;SDS011;59274;49.874;9.154;2022-11-13T10:11:17;15.57;;;8.70;;
71464;SDS011;59274;49.874;9.154;2022-11-13T10:13:53;15.75;;;8.57;;
71464;SDS011;59274;49.874;9.154;2022-11-13T10:19:15;17.85;;;9.40;;
71464;SDS011;59274;49.874;9.154;2022-11-13T10:21:47;16.33;;;8.98;;
71464;SDS011;59274;49.874;9.154;2022-11-13T10:24:26;18.27;;;9.10;;
71464;SDS011;59274;49.874;9.154;2022-11-13T10:26:57;24.92;;;12.18;;
71464;SDS011;59274;49.874;9.154;2022-11-13T10:29:23;21.95;;;11.63;;
71464;SDS011;59274;49.874;9.154;2022-11-13T10:31:52;26.60;;;13.23;;
71464;SDS011;59274;49.874;9.154;2022-11-13T10:34:18;24.97;;;11.97;;
71464;SDS011;59274;49.874;9.154;2022-11-13T10:39:09;23.87;;;12.63;;
71464;SDS011;59274;49.874;9.154;2022-11-13T10:41:47;28.10;;;15.20;;
71464;SDS011;59274;49.874;9.154;2022-11-13T10:46:47;29.88;;;14.50;;
71464;SDS011;59274;49.874;9.154;2022-11-13T10:49:16;32.43;;;15.63;;
71464;SDS011;59274;49.874;9.154;2022-11-13T10:51:43;32.15;;;16.33;;
71464;SDS011;59274;49.874;9.154;2022-11-13T10:57:04;30.50;;;15.10;;
71464;SDS011;59274;49.874;9.154;2022-11-13T10:59:43;29.05;;;14.98;;
71464;SDS011;59274;49.874;9.154;2022-11-13T11:04:45;29.58;;;14.75;;
71464;SDS011;59274;49.874;9.154;2022-11-13T11:07:13;25.87;;;14.10;;
71464;SDS011;59274;49.874;9.154;2022-11-13T11:09:41;31.23;;;15.95;;
71464;SDS011;59274;49.874;9.154;2022-11-13T11:17:18;30.90;;;15.73;;
71464;SDS011;59274;49.874;9.154;2022-11-13T11:19:57;29.25;;;15.30;;
71464;SDS011;59274;49.874;9.154;2022-11-13T11:22:44;27.55;;;14.52;;
71464;SDS011;59274;49.874;9.154;2022-11-13T11:28:13;26.55;;;15.00;;
71464;SDS011;59274;49.874;9.154;2022-11-13T11:30:54;27.30;;;14.30;;
71464;SDS011;59274;49.874;9.154;2022-11-13T11:33:31;28.27;;;15.15;;
71464;SDS011;59274;49.874;9.154;2022-11-13T11:38:49;25.95;;;14.23;;
71464;SDS011;59274;49.874;9.154;2022-11-13T11:41:35;20.55;;;11.93;;
71464;SDS011;59274;49.874;9.154;2022-11-13T11:46:55;23.27;;;12.30;;
71464;SDS011;59274;49.874;9.154;2022-11-13T11:49:21;23.73;;;12.63;;
71464;SDS011;59274;49.874;9.154;2022-11-13T11:51:58;23.33;;;12.07;;
71464;SDS011;59274;49.874;9.154;2022-11-13T11:54:51;18.52;;;10.45;;
71464;SDS011;59274;49.874;9.154;2022-11-13T11:57:36;19.02;;;10.40;;
71464;SDS011;59274;49.874;9.154;2022-11-13T12:00:22;18.55;;;10.30;;
71464;SDS011;59274;49.874;9.154;2022-11-13T12:11:11;22.48;;;12.82;;
71464;SDS011;59274;49.874;9.154;2022-11-13T12:13:44;23.17;;;12.93;;
71464;SDS011;59274;49.874;9.154;2022-11-13T12:16:34;26.20;;;13.60;;
71464;SDS011;59274;49.874;9.154;2022-11-13T12:35:22;24.75;;;13.85;;
71464;SDS011;59274;49.874;9.154;2022-11-13T12:46:38;27.48;;;14.55;;
71464;SDS011;59274;49.874;9.154;2022-11-13T12:51:56;30.70;;;17.05;;
71464;SDS011;59274;49.874;9.154;2022-11-13T12:54:32;30.13;;;16.53;;
71464;SDS011;59274;49.874;9.154;2022-11-13T12:59:43;23.48;;;13.10;;
71464;SDS011;59274;49.874;9.154;2022-11-13T13:15:36;26.33;;;14.27;;
71464;SDS011;59274;49.874;9.154;2022-11-13T13:20:37;25.80;;;15.80;;
71464;SDS011;59274;49.874;9.154;2022-11-13T13:23:04;24.73;;;14.97;;
71464;SDS011;59274;49.874;9.154;2022-11-13T13:25:34;21.83;;;12.98;;
71464;SDS011;59274;49.874;9.154;2022-11-13T13:30:28;22.60;;;12.25;;
71464;SDS011;59274;49.874;9.154;2022-11-13T13:33:12;27.70;;;15.35;;
71464;SDS011;59274;49.874;9.154;2022-11-13T13:36:14;22.23;;;13.33;;
71464;SDS011;59274;49.874;9.154;2022-11-13T13:38:47;19.25;;;11.55;;
71464;SDS011;59274;49.874;9.154;2022-11-13T13:46:59;20.65;;;12.32;;
71464;SDS011;59274;49.874;9.154;2022-11-13T13:49:24;21.13;;;12.77;;
71464;SDS011;59274;49.874;9.154;2022-11-13T13:51:53;23.45;;;13.35;;
71464;SDS011;59274;49.874;9.154;2022-11-13T13:54:21;19.02;;;12.52;;
71464;SDS011;59274;49.874;9.154;2022-11-13T13:56:50;19.53;;;11.93;;
71464;SDS011;59274;49.874;9.154;2022-11-13T13:59:39;20.05;;;11.27;;
71464;SDS011;59274;49.874;9.154;2022-11-13T14:02:19;18.45;;;10.85;;
71464;SDS011;59274;49.874;9.154;2022-11-13T14:04:50;20.05;;;10.52;;
71464;SDS011;59274;49.874;9.154;2022-11-13T14:07:21;17.10;;;9.93;;
71464;SDS011;59274;49.874;9.154;2022-11-13T14:12:44;17.63;;;10.45;;
71464;SDS011;59274;49.874;9.154;2022-11-13T14:17:45;18.20;;;10.88;;
71464;SDS011;59274;49.874;9.154;2022-11-13T14:20:10;19.33;;;11.67;;
71464;SDS011;59274;49.874;9.154;2022-11-13T14:22:37;17.75;;;10.63;;
71464;SDS011;59274;49.874;9.154;2022-11-13T14:25:03;16.30;;;9.23;;
71464;SDS011;59274;49.874;9.154;2022-11-13T14:27:30;14.52;;;8.82;;
71464;SDS011;59274;49.874;9.154;2022-11-13T14:29:57;16.27;;;9.75;;
71464;SDS011;59274;49.874;9.154;2022-11-13T14:32:28;15.95;;;9.45;;
71464;SDS011;59274;49.874;9.154;2022-11-13T14:35:00;18.25;;;11.13;;
71464;SDS011;59274;49.874;9.154;2022-11-13T14:39:59;18.00;;;10.10;;
71464;SDS011;59274;49.874;9.154;2022-11-13T14:47:40;18.52;;;10.52;;
71464;SDS011;59274;49.874;9.154;2022-11-13T14:50:20;18.37;;;10.53;;
71464;SDS011;59274;49.874;9.154;2022-11-13T14:52:56;18.20;;;10.75;;
71464;SDS011;59274;49.874;9.154;2022-11-13T14:55:33;17.65;;;10.48;;
71464;SDS011;59274;49.874;9.154;2022-11-13T14:58:01;17.13;;;9.55;;
71464;SDS011;59274;49.874;9.154;2022-11-13T15:02:55;17.98;;;10.20;;
71464;SDS011;59274;49.874;9.154;2022-11-13T15:05:20;17.23;;;10.30;;
71464;SDS011;59274;49.874;9.154;2022-11-13T15:07:46;19.73;;;10.52;;
71464;SDS011;59274;49.874;9.154;2022-11-13T15:10:13;17.75;;;11.10;;
71464;SDS011;59274;49.874;9.154;2022-11-13T15:12:41;17.00;;;10.17;;
71464;SDS011;59274;49.874;9.154;2022-11-13T15:15:10;16.98;;;9.27;;
71464;SDS011;59274;49.874;9.154;2022-11-13T15:17:39;16.50;;;9.48;;
71464;SDS011;59274;49.874;9.154;2022-11-13T15:20:08;18.73;;;9.90;;
71464;SDS011;59274;49.874;9.154;2022-11-13T15:22:39;18.48;;;10.52;;
71464;SDS011;59274;49.874;9.154;2022-11-13T15:25:12;18.75;;;10.30;;
71464;SDS011;59274;49.874;9.154;2022-11-13T15:27:41;20.92;;;10.18;;
71464;SDS011;59274;49.874;9.154;2022-11-13T15:30:07;15.37;;;8.13;;
71464;SDS011;59274;49.874;9.154;2022-11-13T15:32:33;17.10;;;9.80;;
71464;SDS011;59274;49.874;9.154;2022-11-13T15:34:59;15.85;;;9.57;;
71464;SDS011;59274;49.874;9.154;2022-11-13T15:37:24;14.60;;;7.57;;
71464;SDS011;59274;49.874;9.154;2022-11-13T15:39:50;13.23;;;7.27;;
71464;SDS011;59274;49.874;9.154;2022-11-13T15:42:17;15.43;;;7.57;;
71464;SDS011;59274;49.874;9.154;2022-11-13T15:44:48;12.88;;;6.65;;
71464;SDS011;59274;49.874;9.154;2022-11-13T15:47:35;15.20;;;8.27;;
71464;SDS011;59274;49.874;9.154;2022-11-13T15:50:00;18.45;;;9.45;;
71464;SDS011;59274;49.874;9.154;2022-11-13T15:52:29;13.83;;;7.93;;
71464;SDS011;59274;49.874;9.154;2022-11-13T15:54:59;15.93;;;8.25;;
71464;SDS011;59274;49.874;9.154;2022-11-13T15:57:26;14.15;;;7.40;;
71464;SDS011;59274;49.874;9.154;2022-11-13T15:59:52;13.85;;;7.32;;
71464;SDS011;59274;49.874;9.154;2022-11-13T16:02:19;14.18;;;7.85;;
71464;SDS011;59274;49.874;9.154;2022-11-13T16:04:44;15.20;;;7.60;;
71464;SDS011;59274;49.874;9.154;2022-11-13T16:07:12;15.30;;;8.07;;
71464;SDS011;59274;49.874;9.154;2022-11-13T16:09:40;17.03;;;7.93;;
71464;SDS011;59274;49.874;9.154;2022-11-13T16:12:05;19.42;;;9.73;;
71464;SDS011;59274;49.874;9.154;2022-11-13T16:14:32;15.95;;;8.80;;
71464;SDS011;59274;49.874;9.154;2022-11-13T16:16:58;15.27;;;7.83;;
71464;SDS011;59274;49.874;9.154;2022-11-13T16:19:24;15.25;;;7.88;;
71464;SDS011;59274;49.874;9.154;2022-11-13T16:21:50;12.38;;;6.03;;
71464;SDS011;59274;49.874;9.154;2022-11-13T16:24:15;10.23;;;5.50;;
71464;SDS011;59274;49.874;9.154;2022-11-13T16:26:50;12.32;;;5.70;;
71464;SDS011;59274;49.874;9.154;2022-11-13T16:29:21;12.40;;;5.50;;
71464;SDS011;59274;49.874;9.154;2022-11-13T16:31:47;13.63;;;6.82;;